Time;durP1;ratioP1;P1;durP2;ratioP2;P2;SDS_P1;SDS_P2;PMS_P1;PMS_P2;Temp;Humidity;BMP_temperature;BMP_pressure;BME280_temperature;BME280_humidity;BME280_pressure;Samples;Min_cycle;Max_cycle;Signal;HPM_P1;HPM_P2
2022/09/30 00:01:17;;;;;;;71.30;52.72;;;18.00;64.50;;;;;;4964948;28;95617;-55
2022/09/30 00:03:42;;;;;;;70.55;52.92;;;18.00;64.50;;;;;;4969212;28;96853;-51
2022/09/30 00:06:09;;;;;;;72.80;52.92;;;18.10;64.40;;;;;;4960961;28;98102;-53
2022/09/30 00:08:38;;;;;;;71.95;52.95;;;18.10;64.30;;;;;;4974383;28;95690;-51
2022/09/30 00:11:17;;;;;;;71.43;52.42;;;18.00;64.30;;;;;;4977136;28;95069;-52
2022/09/30 00:13:44;;;;;;;71.35;53.22;;;18.00;64.30;;;;;;4964975;28;95759;-53
2022/09/30 00:16:11;;;;;;;71.25;52.72;;;18.00;64.40;;;;;;4974725;28;95816;-54
2022/09/30 00:18:37;;;;;;;72.15;52.58;;;18.00;65.00;;;;;;4962852;28;95100;-55
2022/09/30 00:21:04;;;;;;;70.53;52.47;;;18.00;64.20;;;;;;4958136;28;101532;-54
2022/09/30 00:23:30;;;;;;;71.75;52.85;;;18.00;64.20;;;;;;4970468;28;94819;-52
2022/09/30 00:26:00;;;;;;;70.85;52.40;;;18.00;64.30;;;;;;4972078;28;95324;-54
2022/09/30 00:28:27;;;;;;;70.53;52.93;;;18.00;64.00;;;;;;4962949;28;97570;-55
2022/09/30 00:30:53;;;;;;;71.78;52.83;;;18.00;63.90;;;;;;4965871;28;96924;-52
2022/09/30 00:33:19;;;;;;;72.53;52.90;;;18.00;63.90;;;;;;4964675;28;95246;-56
2022/09/30 00:35:45;;;;;;;70.10;52.22;;;18.00;63.90;;;;;;4969335;28;95734;-53
2022/09/30 00:38:11;;;;;;;70.70;52.38;;;18.00;64.00;;;;;;4963788;28;94896;-52
2022/09/30 00:40:39;;;;;;;71.30;52.88;;;17.90;63.90;;;;;;4962893;28;95176;-53
2022/09/30 00:43:16;;;;;;;71.68;52.50;;;17.90;63.80;;;;;;4968163;28;97441;-55
2022/09/30 00:45:56;;;;;;;70.55;52.58;;;18.00;63.70;;;;;;4966859;28;96265;-52
2022/09/30 00:48:33;;;;;;;69.43;52.47;;;17.90;63.80;;;;;;4966788;28;96626;-56
2022/09/30 00:51:01;;;;;;;71.35;52.67;;;17.90;63.80;;;;;;4963514;28;94961;-53
2022/09/30 00:53:38;;;;;;;69.82;52.80;;;17.90;63.70;;;;;;4966545;28;96225;-51
2022/09/30 00:56:06;;;;;;;68.90;52.15;;;17.90;63.80;;;;;;4966430;28;97758;-54
2022/09/30 00:58:38;;;;;;;70.35;52.28;;;17.90;63.70;;;;;;4963574;28;95927;-55
2022/09/30 01:01:04;;;;;;;71.15;52.35;;;17.90;63.70;;;;;;4964170;28;95206;-54
2022/09/30 01:03:32;;;;;;;69.60;52.28;;;17.80;63.70;;;;;;4965031;28;99525;-54
2022/09/30 01:05:58;;;;;;;70.55;52.10;;;17.80;63.70;;;;;;4967165;28;95925;-55
2022/09/30 01:08:26;;;;;;;68.93;51.92;;;17.80;63.70;;;;;;4960234;28;95427;-52
2022/09/30 01:10:52;;;;;;;69.72;51.85;;;17.80;63.70;;;;;;4963993;28;95890;-54
2022/09/30 01:13:22;;;;;;;69.55;52.17;;;17.80;63.70;;;;;;4963385;28;95541;-52
2022/09/30 01:16:17;;;;;;;69.25;52.15;;;17.80;63.60;;;;;;4966101;28;100468;-54
2022/09/30 01:19:10;;;;;;;69.50;51.90;;;17.80;63.70;;;;;;4959566;28;99334;-51
2022/09/30 01:21:54;;;;;;;68.70;51.83;;;17.80;63.70;;;;;;4961036;28;102343;-53
2022/09/30 01:24:47;;;;;;;69.43;52.05;;;17.80;63.50;;;;;;4962662;28;99328;-54
2022/09/30 01:27:44;;;;;;;69.55;51.97;;;17.80;63.50;;;;;;4962949;28;95499;-54
2022/09/30 01:30:42;;;;;;;69.32;51.65;;;17.80;63.40;;;;;;4964894;28;94466;-54
2022/09/30 01:33:30;;;;;;;67.70;51.38;;;17.70;63.50;;;;;;4962103;28;95094;-56
2022/09/30 01:36:23;;;;;;;67.65;51.22;;;17.70;63.40;;;;;;4964518;28;97043;-51
2022/09/30 01:38:55;;;;;;;67.97;51.17;;;17.80;63.50;;;;;;4965575;28;96971;-54
2022/09/30 01:41:32;;;;;;;;;;;17.80;63.40;;;;;;4963789;28;96964;-54
2022/09/30 01:44:26;;;;;;;69.00;51.78;;;17.80;63.40;;;;;;4967097;28;95550;-54
2022/09/30 01:47:16;;;;;;;68.45;51.17;;;17.80;63.40;;;;;;4967111;28;97227;-53
2022/09/30 01:50:00;;;;;;;67.43;51.42;;;17.70;63.20;;;;;;4958618;28;100554;-51
2022/09/30 01:52:57;;;;;;;68.20;51.47;;;17.70;63.30;;;;;;4965464;28;99617;-52
2022/09/30 01:55:37;;;;;;;67.43;51.13;;;17.70;63.30;;;;;;4961768;28;95321;-54
2022/09/30 01:58:11;;;;;;;70.65;52.03;;;17.70;63.20;;;;;;4956865;28;96689;-54
2022/09/30 02:00:41;;;;;;;69.82;51.60;;;17.70;63.30;;;;;;4965111;28;95636;-55
2022/09/30 02:03:21;;;;;;;69.80;51.45;;;17.70;63.20;;;;;;4970398;28;95023;-53
2022/09/30 02:06:05;;;;;;;68.22;51.50;;;17.60;63.20;;;;;;4963360;28;96326;-54
2022/09/30 02:08:39;;;;;;;67.53;51.22;;;17.60;63.30;;;;;;4965125;28;95071;-54
2022/09/30 02:11:10;;;;;;;68.07;51.05;;;17.60;63.20;;;;;;4964308;28;96109;-55
2022/09/30 02:13:55;;;;;;;67.05;50.83;;;17.60;63.10;;;;;;4959243;28;95573;-53
2022/09/30 02:16:47;;;;;;;70.43;51.65;;;17.50;63.20;;;;;;4959386;28;97290;-55
2022/09/30 02:19:25;;;;;;;67.85;51.10;;;17.60;63.30;;;;;;4963813;28;95465;-54
2022/09/30 02:22:17;;;;;;;67.35;51.08;;;17.50;63.30;;;;;;4967308;28;99531;-54
2022/09/30 02:24:45;;;;;;;67.47;50.65;;;17.50;63.20;;;;;;4963530;28;95689;-54
2022/09/30 02:27:20;;;;;;;67.35;50.70;;;17.50;63.30;;;;;;4967266;28;94977;-52
2022/09/30 02:29:57;;;;;;;68.78;50.92;;;17.50;63.40;;;;;;4968988;28;95422;-57
2022/09/30 02:32:49;;;;;;;68.00;50.72;;;17.50;63.60;;;;;;4952815;28;96832;-52
2022/09/30 02:35:24;;;;;;;66.18;50.47;;;17.50;63.40;;;;;;4960257;28;95182;-51
2022/09/30 02:37:57;;;;;;;66.32;50.60;;;17.50;63.40;;;;;;4960995;28;94986;-54
2022/09/30 02:40:23;;;;;;;67.57;50.92;;;17.50;63.00;;;;;;4962872;28;96610;-50
2022/09/30 02:42:49;;;;;;;67.80;50.88;;;17.50;63.10;;;;;;4962343;28;95533;-56
2022/09/30 02:45:19;;;;;;;66.72;50.42;;;17.50;62.90;;;;;;4963098;28;94962;-53
2022/09/30 02:47:47;;;;;;;67.15;50.90;;;17.50;63.00;;;;;;4961556;28;95207;-55
2022/09/30 02:50:16;;;;;;;66.78;50.55;;;17.50;63.10;;;;;;4966779;28;96211;-52
2022/09/30 02:52:42;;;;;;;66.15;50.55;;;17.50;63.00;;;;;;4964093;28;95359;-56
2022/09/30 02:55:34;;;;;;;67.47;50.78;;;17.40;62.90;;;;;;4960689;28;96127;-51
2022/09/30 02:58:13;;;;;;;66.22;50.67;;;17.50;63.00;;;;;;4961261;28;96934;-52
2022/09/30 03:00:39;;;;;;;66.70;50.35;;;17.40;63.00;;;;;;4958704;28;96677;-53
2022/09/30 03:03:21;;;;;;;67.28;50.45;;;17.40;63.80;;;;;;4958065;28;95885;-55
2022/09/30 03:05:49;;;;;;;66.55;50.50;;;17.40;63.10;;;;;;4959063;28;95248;-53
2022/09/30 03:08:15;;;;;;;67.47;50.30;;;17.40;62.90;;;;;;4960345;28;95527;-54
2022/09/30 03:10:42;;;;;;;67.88;50.83;;;17.40;62.90;;;;;;4963021;28;98114;-53
2022/09/30 03:13:24;;;;;;;66.57;50.42;;;17.30;62.70;;;;;;4952725;28;97687;-50
2022/09/30 03:16:13;;;;;;;66.43;50.70;;;17.30;62.80;;;;;;4955556;28;94822;-56
2022/09/30 03:18:57;;;;;;;66.57;50.50;;;17.30;62.90;;;;;;4963019;28;95102;-53
2022/09/30 03:21:50;;;;;;;65.90;50.33;;;17.30;63.00;;;;;;4957275;28;95065;-53
2022/09/30 03:25:04;;;;;;;67.53;50.65;;;17.30;62.90;;;;;;4966217;28;97289;-53
2022/09/30 03:27:32;;;;;;;65.53;50.05;;;17.30;62.80;;;;;;4923730;28;96783;-54
2022/09/30 03:30:07;;;;;;;66.35;50.70;;;17.20;62.90;;;;;;4952535;28;97617;-51
2022/09/30 03:33:00;;;;;;;66.13;50.28;;;17.30;63.10;;;;;;4957604;28;95057;-55
2022/09/30 03:35:45;;;;;;;66.63;50.65;;;17.20;63.00;;;;;;4959629;28;96508;-54
2022/09/30 03:38:26;;;;;;;66.32;50.90;;;17.20;63.00;;;;;;4959723;28;96531;-50
2022/09/30 03:41:16;;;;;;;66.25;50.13;;;17.20;62.90;;;;;;4962691;28;96253;-54
2022/09/30 03:44:53;;;;;;;66.03;50.40;;;17.20;62.90;;;;;;4958291;28;99016;-54
2022/09/30 03:47:19;;;;;;;67.38;50.85;;;17.20;63.00;;;;;;4881415;28;96552;-50
2022/09/30 03:49:50;;;;;;;66.13;50.50;;;17.20;62.90;;;;;;4937343;28;95439;-52
2022/09/30 03:52:16;;;;;;;66.80;50.75;;;17.20;62.90;;;;;;4966462;28;96133;-52
2022/09/30 03:54:53;;;;;;;65.93;50.35;;;17.20;62.50;;;;;;4962523;28;95761;-54
2022/09/30 03:57:18;;;;;;;66.35;50.40;;;17.20;63.00;;;;;;4952600;28;96246;-52
2022/09/30 03:59:44;;;;;;;65.38;50.00;;;17.20;62.80;;;;;;4951211;28;96109;-54
2022/09/30 04:02:12;;;;;;;68.07;50.58;;;17.20;62.90;;;;;;4945708;28;98939;-53
2022/09/30 04:04:41;;;;;;;66.07;50.53;;;17.20;62.70;;;;;;4957575;28;95381;-53
2022/09/30 04:07:09;;;;;;;69.03;50.47;;;17.20;62.70;;;;;;4954902;28;95904;-51
2022/09/30 04:09:38;;;;;;;67.05;50.65;;;17.20;62.60;;;;;;4960226;28;95025;-50
2022/09/30 04:12:05;;;;;;;66.18;50.58;;;17.20;62.50;;;;;;4950708;28;96954;-52
2022/09/30 04:14:31;;;;;;;66.53;50.80;;;17.20;62.60;;;;;;4959072;28;95729;-53
2022/09/30 04:16:57;;;;;;;67.28;50.42;;;17.20;62.50;;;;;;4953384;28;96340;-55
2022/09/30 04:19:23;;;;;;;66.85;50.80;;;17.10;62.50;;;;;;4953902;28;96607;-55
2022/09/30 04:21:52;;;;;;;65.55;50.20;;;17.10;62.50;;;;;;4960774;28;95932;-53
2022/09/30 04:24:23;;;;;;;66.43;50.85;;;17.10;62.50;;;;;;4959472;28;95414;-53
2022/09/30 04:26:49;;;;;;;65.65;50.22;;;17.10;62.40;;;;;;4959386;28;96054;-53
2022/09/30 04:29:14;;;;;;;66.40;50.33;;;17.10;62.40;;;;;;4958444;28;99598;-53
2022/09/30 04:31:40;;;;;;;67.93;51.03;;;17.10;62.40;;;;;;4956377;28;98919;-55
2022/09/30 04:34:07;;;;;;;65.70;50.33;;;17.10;62.30;;;;;;4961147;28;94856;-51
2022/09/30 04:36:32;;;;;;;65.90;50.22;;;17.10;62.30;;;;;;4961669;28;95390;-54
2022/09/30 04:38:58;;;;;;;66.50;50.35;;;17.10;62.10;;;;;;4958946;28;95189;-54
2022/09/30 04:41:24;;;;;;;65.90;50.15;;;17.10;62.20;;;;;;4963980;28;96596;-55
2022/09/30 04:43:50;;;;;;;67.10;50.47;;;17.10;62.30;;;;;;4953337;28;96692;-57
2022/09/30 04:46:18;;;;;;;67.32;50.50;;;17.10;62.50;;;;;;4953001;28;96498;-52
2022/09/30 04:48:45;;;;;;;67.85;50.63;;;17.10;62.60;;;;;;4956484;28;95985;-52
2022/09/30 04:51:15;;;;;;;66.53;50.90;;;17.10;62.90;;;;;;4963422;28;96320;-55
2022/09/30 04:53:41;;;;;;;69.93;50.03;;;17.10;63.20;;;;;;4963736;28;96244;-54
2022/09/30 04:56:07;;;;;;;65.72;50.22;;;17.00;63.40;;;;;;4960895;28;96389;-55
2022/09/30 04:58:34;;;;;;;69.72;51.13;;;17.00;63.60;;;;;;4955505;28;95217;-58
2022/09/30 05:01:04;;;;;;;69.00;50.90;;;17.10;64.40;;;;;;4962643;28;100192;-54
2022/09/30 05:03:30;;;;;;;70.35;50.40;;;17.10;63.60;;;;;;4969048;28;95327;-55
2022/09/30 05:05:56;;;;;;;70.20;50.45;;;17.10;63.40;;;;;;4960990;28;97423;-52
2022/09/30 05:08:22;;;;;;;65.80;50.03;;;17.00;63.50;;;;;;4957400;28;96617;-54
2022/09/30 05:10:56;;;;;;;67.38;50.67;;;17.00;63.50;;;;;;4964461;28;94918;-53
2022/09/30 05:13:25;;;;;;;67.25;50.67;;;17.10;63.70;;;;;;4969150;28;95108;-54
2022/09/30 05:15:51;;;;;;;66.78;50.38;;;17.10;63.30;;;;;;4965222;28;97072;-54
2022/09/30 05:18:19;;;;;;;69.22;51.00;;;17.10;63.30;;;;;;4965861;28;96609;-55
2022/09/30 05:20:47;;;;;;;68.10;50.90;;;17.10;63.20;;;;;;4965509;28;98459;-53
2022/09/30 05:23:13;;;;;;;66.68;50.45;;;17.00;63.40;;;;;;4970360;28;96346;-50
2022/09/30 05:25:38;;;;;;;67.57;50.42;;;17.00;63.30;;;;;;4961999;28;94971;-51
2022/09/30 05:28:04;;;;;;;66.82;50.53;;;17.00;63.20;;;;;;4966597;28;95840;-53
2022/09/30 05:30:30;;;;;;;67.43;50.55;;;17.00;63.30;;;;;;4969256;28;96273;-55
2022/09/30 05:32:55;;;;;;;67.65;50.88;;;17.00;63.40;;;;;;4966141;28;96145;-53
2022/09/30 05:35:21;;;;;;;67.63;50.45;;;16.90;63.60;;;;;;4965997;28;97485;-52
2022/09/30 05:37:47;;;;;;;65.97;50.88;;;16.90;63.60;;;;;;4963835;28;95806;-54
2022/09/30 05:40:13;;;;;;;67.90;50.83;;;17.00;63.80;;;;;;4974614;28;95265;-54
2022/09/30 05:42:38;;;;;;;66.93;50.60;;;17.00;63.60;;;;;;4957627;28;95562;-54
2022/09/30 05:45:05;;;;;;;68.50;50.55;;;17.00;63.30;;;;;;4965099;28;96180;-54
2022/09/30 05:47:32;;;;;;;67.28;50.88;;;17.00;63.30;;;;;;4968056;28;94863;-54
2022/09/30 05:49:58;;;;;;;64.88;50.00;;;16.90;63.30;;;;;;4955736;28;95141;-52
2022/09/30 05:52:24;;;;;;;68.05;51.45;;;16.90;63.60;;;;;;4959614;28;95481;-51
2022/09/30 05:54:49;;;;;;;66.70;51.28;;;16.90;63.90;;;;;;4953101;28;98431;-56
2022/09/30 05:57:16;;;;;;;67.43;51.10;;;17.00;63.50;;;;;;4965295;28;98728;-57
2022/09/30 05:59:42;;;;;;;68.97;51.63;;;17.00;63.30;;;;;;4958169;28;95097;-56
2022/09/30 06:02:09;;;;;;;68.43;51.15;;;17.00;63.10;;;;;;4961272;28;95221;-52
2022/09/30 06:04:35;;;;;;;67.75;51.30;;;16.90;62.90;;;;;;4964451;28;95793;-53
2022/09/30 06:07:00;;;;;;;69.65;50.90;;;16.90;62.90;;;;;;4967921;28;95065;-54
2022/09/30 06:09:26;;;;;;;66.32;51.15;;;16.90;62.60;;;;;;4968412;28;101030;-51
2022/09/30 06:11:53;;;;;;;67.72;50.58;;;16.90;62.40;;;;;;4957481;28;95871;-55
2022/09/30 06:14:19;;;;;;;65.88;50.58;;;16.90;63.10;;;;;;4967148;28;95244;-53
2022/09/30 06:16:44;;;;;;;67.43;50.90;;;17.00;62.40;;;;;;4969672;28;97479;-53
2022/09/30 06:19:10;;;;;;;69.72;51.17;;;17.00;62.30;;;;;;4968787;28;96461;-52
2022/09/30 06:21:36;;;;;;;68.10;50.72;;;16.90;62.50;;;;;;4960011;28;96094;-57
2022/09/30 06:24:02;;;;;;;68.65;50.72;;;16.90;62.90;;;;;;4966133;28;94976;-52
2022/09/30 06:26:27;;;;;;;69.50;50.47;;;17.00;63.00;;;;;;4957900;28;96684;-53
2022/09/30 06:28:53;;;;;;;69.60;50.88;;;16.90;63.10;;;;;;4949309;28;95982;-52
2022/09/30 06:31:19;;;;;;;68.80;50.83;;;17.00;63.40;;;;;;4951968;28;100903;-53
2022/09/30 06:33:45;;;;;;;69.43;50.80;;;17.10;63.20;;;;;;4969226;28;95399;-53
2022/09/30 06:36:11;;;;;;;73.22;51.05;;;17.30;62.40;;;;;;4964697;28;95650;-53
2022/09/30 06:38:38;;;;;;;69.85;50.55;;;17.20;62.20;;;;;;4954586;28;95043;-52
2022/09/30 06:41:04;;;;;;;69.13;50.63;;;17.40;62.50;;;;;;4956224;28;95784;-54
2022/09/30 06:43:30;;;;;;;74.53;50.72;;;17.50;61.90;;;;;;4967457;28;97850;-51
2022/09/30 06:45:56;;;;;;;67.53;50.03;;;17.50;61.30;;;;;;4966533;28;95295;-52
2022/09/30 06:48:22;;;;;;;66.57;50.72;;;17.50;61.50;;;;;;4959764;28;97037;-53
2022/09/30 06:50:48;;;;;;;71.90;50.55;;;17.50;61.50;;;;;;4951635;28;95194;-50
2022/09/30 06:53:14;;;;;;;66.80;50.40;;;17.60;61.10;;;;;;4958258;28;96436;-53
2022/09/30 06:55:40;;;;;;;67.07;50.15;;;17.70;61.00;;;;;;4960720;28;95589;-53
2022/09/30 06:58:12;;;;;;;68.63;50.80;;;17.70;61.00;;;;;;4963708;28;97518;-50
2022/09/30 07:00:37;;;;;;;69.38;50.38;;;17.60;60.90;;;;;;4969827;28;100661;-51
2022/09/30 07:03:08;;;;;;;66.55;50.22;;;17.70;60.70;;;;;;4959181;28;95940;-51
2022/09/30 07:05:35;;;;;;;70.63;50.03;;;17.80;60.70;;;;;;4963291;28;95230;-52
2022/09/30 07:08:00;;;;;;;67.18;50.63;;;17.80;60.40;;;;;;4958740;28;96675;-48
2022/09/30 07:10:26;;;;;;;68.70;50.78;;;17.80;60.30;;;;;;4967051;28;98622;-49
2022/09/30 07:12:53;;;;;;;69.15;50.53;;;17.90;60.60;;;;;;4950928;28;101204;-52
2022/09/30 07:15:22;;;;;;;71.55;50.97;;;17.90;60.60;;;;;;4952714;28;98238;-52
2022/09/30 07:17:57;;;;;;;73.57;51.70;;;17.90;61.40;;;;;;4957225;28;96610;-52
2022/09/30 07:20:23;;;;;;;69.40;51.25;;;17.80;62.10;;;;;;4959203;28;100996;-53
2022/09/30 07:22:49;;;;;;;70.07;51.00;;;17.80;62.40;;;;;;4952190;28;95196;-54
2022/09/30 07:25:16;;;;;;;71.75;51.83;;;17.70;63.00;;;;;;4954671;28;96055;-50
2022/09/30 07:27:41;;;;;;;73.20;51.22;;;17.70;63.00;;;;;;4962875;28;95287;-54
2022/09/30 07:30:08;;;;;;;73.05;51.95;;;17.70;63.60;;;;;;4972578;28;97184;-56
2022/09/30 07:32:34;;;;;;;73.13;52.38;;;17.70;63.80;;;;;;4961106;28;97126;-50
2022/09/30 07:35:00;;;;;;;76.30;51.67;;;17.70;64.30;;;;;;4958034;28;95590;-52
2022/09/30 07:37:26;;;;;;;71.13;51.38;;;17.70;64.00;;;;;;4956124;28;95443;-52
2022/09/30 07:39:52;;;;;;;73.60;51.45;;;17.70;64.00;;;;;;4966509;28;104437;-54
2022/09/30 07:42:21;;;;;;;70.90;51.78;;;17.70;64.60;;;;;;4967235;28;98389;-51
2022/09/30 07:44:50;;;;;;;73.80;51.80;;;17.80;64.60;;;;;;4954296;28;97973;-53
2022/09/30 07:47:16;;;;;;;75.80;52.03;;;17.80;63.90;;;;;;4952713;28;95603;-48
2022/09/30 07:49:42;;;;;;;81.55;52.70;;;17.90;63.80;;;;;;4948635;28;96123;-55
2022/09/30 07:52:10;;;;;;;84.55;52.95;;;17.80;63.90;;;;;;4957362;28;95784;-51
2022/09/30 07:54:37;;;;;;;79.15;51.95;;;17.80;63.70;;;;;;4955492;28;96325;-51
2022/09/30 07:57:03;;;;;;;73.93;52.08;;;17.80;63.50;;;;;;4957846;28;96598;-54
2022/09/30 07:59:31;;;;;;;72.22;51.40;;;17.90;63.50;;;;;;4975808;28;95374;-51
2022/09/30 08:01:56;;;;;;;76.75;51.92;;;17.80;63.40;;;;;;4965708;28;95222;-54
2022/09/30 08:04:24;;;;;;;73.50;51.60;;;17.90;63.30;;;;;;4964975;28;103500;-54
2022/09/30 08:06:56;;;;;;;71.50;51.72;;;17.80;63.20;;;;;;4960809;28;95427;-50
2022/09/30 08:09:22;;;;;;;;;;;17.80;63.30;;;;;;4975316;28;95017;-51
2022/09/30 08:11:48;;;;;;;72.40;51.88;;;17.80;63.10;;;;;;4953080;28;97400;-52
2022/09/30 08:14:21;;;;;;;74.25;51.53;;;17.80;63.10;;;;;;4950375;28;94425;-54
2022/09/30 08:16:47;;;;;;;70.38;51.65;;;17.90;63.00;;;;;;4945515;28;99059;-53
2022/09/30 08:19:18;;;;;;;70.07;51.30;;;17.90;63.10;;;;;;4960001;27;95805;-54
2022/09/30 08:21:45;;;;;;;76.55;51.80;;;17.80;63.40;;;;;;4955828;28;96844;-55
2022/09/30 08:24:11;;;;;;;75.18;51.65;;;17.80;63.80;;;;;;4961827;28;98238;-52
2022/09/30 08:26:37;;;;;;;75.60;52.03;;;17.80;64.00;;;;;;4969495;28;95955;-51
2022/09/30 08:29:03;;;;;;;72.25;51.50;;;17.80;64.20;;;;;;4968247;28;95219;-53
2022/09/30 08:31:29;;;;;;;74.43;52.08;;;17.80;64.20;;;;;;4960342;28;97540;-53
2022/09/30 08:33:55;;;;;;;72.13;51.53;;;17.80;64.40;;;;;;4961035;28;97647;-52
2022/09/30 08:36:23;;;;;;;70.05;51.83;;;17.80;64.50;;;;;;4938721;28;96015;-51
2022/09/30 08:38:49;;;;;;;73.32;51.80;;;17.90;64.20;;;;;;4966117;28;95909;-54
2022/09/30 08:41:44;;;;;;;70.18;51.53;;;18.20;63.40;;;;;;4955400;28;99887;-52
2022/09/30 08:44:21;;;;;;;68.95;51.63;;;18.40;62.70;;;;;;4949685;28;95647;-47
2022/09/30 08:47:03;;;;;;;70.18;51.47;;;18.30;62.80;;;;;;4950321;28;96331;-50
2022/09/30 08:49:35;;;;;;;74.20;51.15;;;18.20;63.40;;;;;;4948253;28;95584;-52
2022/09/30 08:52:04;;;;;;;70.88;51.38;;;18.20;63.40;;;;;;4956099;28;102527;-51
2022/09/30 08:54:32;;;;;;;70.65;51.75;;;18.20;63.40;;;;;;4953726;28;95374;-53
2022/09/30 08:57:00;;;;;;;70.28;51.85;;;18.30;63.40;;;;;;4959681;28;97728;-50
2022/09/30 08:59:37;;;;;;;73.63;51.65;;;18.30;63.30;;;;;;4957021;28;95897;-48
2022/09/30 09:02:14;;;;;;;75.32;51.67;;;18.30;63.40;;;;;;4947557;28;95394;-50
2022/09/30 09:04:40;;;;;;;70.57;51.92;;;18.30;63.50;;;;;;4959096;28;96431;-49
2022/09/30 09:07:33;;;;;;;71.50;51.85;;;18.30;63.40;;;;;;4962799;28;96380;-47
2022/09/30 09:10:54;;;;;;;67.70;51.05;;;18.40;63.80;;;;;;4967794;28;97720;-50
2022/09/30 09:13:42;;;;;;;70.23;51.57;;;18.60;63.60;;;;;;4931382;28;97162;-51
2022/09/30 09:16:48;;;;;;;71.60;52.05;;;18.70;63.30;;;;;;4959421;28;102304;-48
2022/09/30 09:19:23;;;;;;;71.03;51.03;;;18.70;62.30;;;;;;4957356;28;95136;-52
2022/09/30 09:21:56;;;;;;;69.35;51.75;;;18.70;63.30;;;;;;4961951;28;103571;-49
2022/09/30 09:24:41;;;;;;;73.78;51.92;;;18.60;63.30;;;;;;4956004;28;97561;-53
2022/09/30 09:27:27;;;;;;;68.82;51.50;;;18.70;63.60;;;;;;4952028;28;95512;-53
2022/09/30 09:30:22;;;;;;;71.93;52.03;;;18.80;63.40;;;;;;4954384;28;96713;-49
2022/09/30 09:32:56;;;;;;;75.25;52.22;;;18.80;63.70;;;;;;4961270;28;94227;-55
2022/09/30 09:35:28;;;;;;;76.75;52.25;;;18.80;64.30;;;;;;4961584;28;95545;-53
2022/09/30 09:38:38;;;;;;;74.13;52.10;;;18.80;65.10;;;;;;4951432;28;98770;-52
2022/09/30 09:41:14;;;;;;;70.72;51.78;;;18.80;64.60;;;;;;4960976;28;96776;-50
2022/09/30 09:44:16;;;;;;;73.97;52.22;;;18.80;64.80;;;;;;4950813;28;95410;-50
2022/09/30 09:46:49;;;;;;;73.43;52.20;;;18.80;65.00;;;;;;4940548;28;96284;-54
2022/09/30 09:49:22;;;;;;;74.03;52.20;;;18.90;65.00;;;;;;4950955;28;95290;-53
2022/09/30 09:52:11;;;;;;;73.93;52.00;;;18.80;65.30;;;;;;4953700;28;96135;-51
2022/09/30 09:54:40;;;;;;;81.35;52.25;;;18.90;65.20;;;;;;4952036;28;95668;-55
2022/09/30 09:57:12;;;;;;;76.03;52.40;;;18.90;65.80;;;;;;4957494;28;97595;-56
2022/09/30 09:59:53;;;;;;;73.00;52.22;;;18.90;65.60;;;;;;4952505;28;94631;-53
2022/09/30 10:02:25;;;;;;;74.63;52.30;;;19.00;65.70;;;;;;4949725;28;99079;-52
2022/09/30 10:04:58;;;;;;;75.32;52.08;;;19.00;66.20;;;;;;4961187;28;95053;-50
2022/09/30 10:07:27;;;;;;;76.25;52.83;;;19.20;66.90;;;;;;4953195;28;100374;-51
2022/09/30 10:10:05;;;;;;;74.45;52.65;;;19.20;66.50;;;;;;4950025;28;96524;-53
2022/09/30 10:12:30;;;;;;;74.47;52.67;;;19.20;66.50;;;;;;4932198;28;96789;-52
2022/09/30 10:15:00;;;;;;;77.20;52.38;;;19.20;66.30;;;;;;4939848;28;96538;-50
2022/09/30 10:17:31;;;;;;;71.65;51.85;;;19.20;65.20;;;;;;4952470;28;101002;-51
2022/09/30 10:20:13;;;;;;;71.03;52.05;;;19.20;64.70;;;;;;4948418;28;96186;-52
2022/09/30 10:22:39;;;;;;;71.80;51.97;;;19.20;64.50;;;;;;4959545;28;96514;-52
2022/09/30 10:25:19;;;;;;;72.50;51.53;;;19.20;64.50;;;;;;4963687;28;95016;-56
2022/09/30 10:27:58;;;;;;;71.88;51.88;;;19.30;64.10;;;;;;4966166;28;95264;-52
2022/09/30 10:30:47;;;;;;;72.60;51.25;;;19.30;63.90;;;;;;4958607;28;95994;-54
2022/09/30 10:33:15;;;;;;;76.72;51.38;;;19.30;64.40;;;;;;4955955;28;95714;-48
2022/09/30 10:36:02;;;;;;;72.65;51.38;;;19.50;63.90;;;;;;4958461;28;95325;-48
2022/09/30 10:38:31;;;;;;;74.88;51.55;;;19.40;63.50;;;;;;4965169;28;95305;-48
2022/09/30 10:40:58;;;;;;;75.10;51.08;;;19.50;63.70;;;;;;4967672;28;95140;-50
2022/09/30 10:43:32;;;;;;;71.05;51.45;;;19.50;63.40;;;;;;4958842;28;96550;-52
2022/09/30 10:46:02;;;;;;;75.28;51.35;;;19.50;63.60;;;;;;4962486;28;95402;-53
2022/09/30 10:48:34;;;;;;;71.97;51.50;;;19.50;63.50;;;;;;4955228;28;96842;-52
2022/09/30 10:51:00;;;;;;;72.18;51.55;;;19.50;63.30;;;;;;4961195;28;96971;-51
2022/09/30 10:53:28;;;;;;;70.68;50.75;;;19.50;63.40;;;;;;4960283;28;94709;-54
2022/09/30 10:55:56;;;;;;;73.00;51.40;;;19.50;63.50;;;;;;4960641;28;95365;-49
2022/09/30 10:58:39;;;;;;;70.20;51.60;;;19.50;63.00;;;;;;4960395;28;95682;-48
2022/09/30 11:01:23;;;;;;;69.80;51.35;;;19.50;63.00;;;;;;4964078;28;97639;-50
2022/09/30 11:04:00;;;;;;;72.25;51.55;;;19.50;62.90;;;;;;4962988;28;95039;-49
2022/09/30 11:06:30;;;;;;;72.20;51.22;;;19.50;64.30;;;;;;4963455;28;95249;-49
2022/09/30 11:09:18;;;;;;;71.53;50.97;;;19.50;63.70;;;;;;4955485;28;96832;-53
2022/09/30 11:11:54;;;;;;;73.00;50.80;;;19.60;64.10;;;;;;4953675;28;96344;-54
2022/09/30 11:14:37;;;;;;;69.95;50.50;;;19.60;63.70;;;;;;4957436;28;96418;-52
2022/09/30 11:17:26;;;;;;;72.70;51.08;;;19.70;63.90;;;;;;4947487;28;94988;-51
2022/09/30 11:20:08;;;;;;;72.05;50.67;;;19.70;63.80;;;;;;4951705;28;102803;-52
2022/09/30 11:23:04;;;;;;;75.25;51.00;;;19.80;64.90;;;;;;4951788;28;96366;-50
2022/09/30 11:25:35;;;;;;;70.40;50.63;;;19.80;64.70;;;;;;4954444;28;96427;-54
2022/09/30 11:28:30;;;;;;;72.05;50.85;;;19.90;64.90;;;;;;4936863;28;98381;-55
2022/09/30 11:31:13;;;;;;;72.63;50.80;;;19.90;65.50;;;;;;4955491;28;96247;-53
2022/09/30 11:34:18;;;;;;;70.25;50.78;;;20.00;65.00;;;;;;4949690;28;98251;-54
2022/09/30 11:37:10;;;;;;;73.63;50.17;;;20.00;65.20;;;;;;4961685;28;96593;-51
2022/09/30 11:40:13;;;;;;;74.38;50.75;;;20.00;64.80;;;;;;4958297;28;95183;-49
2022/09/30 11:43:14;;;;;;;71.65;50.47;;;20.00;64.50;;;;;;4960738;28;95373;-50
2022/09/30 11:45:53;;;;;;;71.60;50.75;;;20.00;64.40;;;;;;4971163;28;94989;-50
2022/09/30 11:48:28;;;;;;;70.40;50.42;;;20.10;64.10;;;;;;4961464;28;95512;-51
2022/09/30 11:51:16;;;;;;;71.78;50.83;;;20.10;63.80;;;;;;4959994;28;97756;-55
2022/09/30 11:54:30;;;;;;;71.35;51.05;;;20.10;64.10;;;;;;4957346;28;95989;-53
2022/09/30 11:57:05;;;;;;;74.40;50.80;;;20.10;65.20;;;;;;4945747;28;95513;-50
2022/09/30 11:59:44;;;;;;;70.15;50.78;;;20.10;66.00;;;;;;4958521;28;96427;-50
2022/09/30 12:02:35;;;;;;;73.43;50.90;;;20.10;66.10;;;;;;4951689;28;100467;-51
2022/09/30 12:05:12;;;;;;;71.07;50.60;;;20.20;66.40;;;;;;4950609;28;95893;-51
2022/09/30 12:07:44;;;;;;;70.10;51.03;;;20.10;67.00;;;;;;4963160;28;95617;-50
2022/09/30 12:10:25;;;;;;;70.97;51.25;;;20.20;67.70;;;;;;4963912;28;96998;-52
2022/09/30 12:13:02;;;;;;;72.57;51.22;;;20.20;68.60;;;;;;4966802;28;96321;-54
2022/09/30 12:15:28;;;;;;;79.45;50.88;;;20.30;70.20;;;;;;4962814;28;100333;-49
2022/09/30 12:18:02;;;;;;;71.20;50.60;;;20.30;71.30;;;;;;4952376;28;95868;-51
2022/09/30 12:20:33;;;;;;;74.07;51.17;;;20.30;71.80;;;;;;4956191;28;100431;-50
2022/09/30 12:23:28;;;;;;;70.78;51.40;;;20.40;73.10;;;;;;4958841;28;97133;-54
2022/09/30 12:25:59;;;;;;;71.80;50.58;;;20.40;72.40;;;;;;4960409;28;96025;-53
2022/09/30 12:32:33;;;;;;;73.18;51.00;;;20.40;71.70;;;;;;4928402;28;95268;-53
2022/09/30 12:35:42;;;;;;;70.45;51.17;;;20.40;71.00;;;;;;4929041;28;95004;-53
2022/09/30 12:38:29;;;;;;;71.50;51.03;;;20.50;70.40;;;;;;4946218;28;96192;-53
2022/09/30 12:41:21;;;;;;;72.18;51.00;;;20.50;70.10;;;;;;4973456;28;95062;-53
2022/09/30 12:44:05;;;;;;;;;;;20.50;69.70;;;;;;4953559;28;94779;-52
2022/09/30 12:46:57;;;;;;;72.05;50.92;;;20.60;69.20;;;;;;4969875;28;95318;-50
2022/09/30 12:49:26;;;;;;;74.25;50.80;;;20.60;68.60;;;;;;4956469;28;96764;-53
2022/09/30 12:51:55;;;;;;;73.80;51.00;;;20.50;67.40;;;;;;4954177;28;100944;-54
2022/09/30 12:54:30;;;;;;;77.45;50.97;;;20.50;66.80;;;;;;4953630;28;95738;-52
2022/09/30 12:56:59;;;;;;;75.00;51.15;;;20.60;66.60;;;;;;4963944;28;99173;-51
2022/09/30 12:59:37;;;;;;;71.80;51.03;;;20.60;66.30;;;;;;4958303;28;96770;-55
2022/09/30 13:02:05;;;;;;;73.25;50.92;;;20.70;66.80;;;;;;4967061;28;95231;-53
2022/09/30 13:04:38;;;;;;;74.70;50.88;;;20.70;65.90;;;;;;4960279;28;97537;-52
2022/09/30 13:07:05;;;;;;;73.28;51.15;;;20.70;65.60;;;;;;4967807;28;95444;-49